createdAt,value
2022-09-17T00:01:45.725Z,89.35
2022-09-17T00:04:14.520Z,89.46
2022-09-17T00:06:44.555Z,89.28
2022-09-17T00:09:13.531Z,89.26
2022-09-17T00:11:44.609Z,89.30
2022-09-17T00:14:17.863Z,89.35
2022-09-17T00:16:49.704Z,89.33
2022-09-17T00:19:21.633Z,89.10
2022-09-17T00:21:53.082Z,89.03
2022-09-17T00:24:22.922Z,89.23
2022-09-17T00:26:52.040Z,89.57
2022-09-17T00:29:20.839Z,89.73
2022-09-17T00:31:50.039Z,89.60
2022-09-17T00:34:18.804Z,89.89
2022-09-17T00:36:47.530Z,89.85
2022-09-17T00:39:17.774Z,90.17
2022-09-17T00:41:46.699Z,89.94
2022-09-17T00:44:51.878Z,90.23
2022-09-17T00:47:28.389Z,90.27
2022-09-17T00:50:02.556Z,90.35
2022-09-17T00:52:37.646Z,90.46
2022-09-17T00:55:17.842Z,90.53
2022-09-17T00:57:47.671Z,90.73
2022-09-17T01:00:18.640Z,90.63
2022-09-17T01:02:47.922Z,90.69
2022-09-17T01:05:17.944Z,90.59
2022-09-17T01:08:04.739Z,90.62
2022-09-17T01:11:18.021Z,90.53
2022-09-17T01:14:15.397Z,90.41
2022-09-17T01:16:58.777Z,89.93
2022-09-17T01:20:18.216Z,89.92
2022-09-17T01:23:09.105Z,89.85
2022-09-17T01:26:00.623Z,89.74
2022-09-17T01:28:45.202Z,89.76
2022-09-17T01:31:39.053Z,89.74
2022-09-17T01:34:21.608Z,89.89
2022-09-17T01:37:05.810Z,89.59
2022-09-17T01:39:47.867Z,89.66
2022-09-17T01:42:25.514Z,89.83
2022-09-17T01:45:06.262Z,90.16
2022-09-17T01:47:42.909Z,90.31
2022-09-17T01:50:17.448Z,90.46
2022-09-17T01:52:52.636Z,90.42
2022-09-17T01:55:27.012Z,90.15
2022-09-17T01:57:59.981Z,90.23
2022-09-17T02:00:28.947Z,90.37
2022-09-17T02:03:08.054Z,90.41
2022-09-17T02:05:43.913Z,90.46
2022-09-17T02:08:18.578Z,90.31
2022-09-17T02:10:53.905Z,90.43
2022-09-17T02:13:29.009Z,90.51
2022-09-17T02:16:04.698Z,90.43
2022-09-17T02:18:45.077Z,90.32
2022-09-17T02:21:23.312Z,90.22
2022-09-17T02:24:07.389Z,90.09
2022-09-17T02:26:43.860Z,90.15
2022-09-17T02:29:24.731Z,89.88
2022-09-17T02:31:53.823Z,89.66
2022-09-17T02:34:25.931Z,89.82
2022-09-17T02:36:55.425Z,90.07
2022-09-17T02:39:24.324Z,90.19
2022-09-17T02:42:07.011Z,90.37
2022-09-17T02:44:46.628Z,90.34
2022-09-17T02:47:58.075Z,90.31
2022-09-17T02:50:42.024Z,90.20
2022-09-17T02:53:33.695Z,90.11
2022-09-17T02:56:15.536Z,90.20
2022-09-17T02:58:54.247Z,89.95
2022-09-17T03:01:32.469Z,89.96
2022-09-17T03:04:04.448Z,90.19
2022-09-17T03:06:34.663Z,89.92
2022-09-17T03:09:03.357Z,89.93
2022-09-17T03:11:32.264Z,89.98
2022-09-17T03:14:00.926Z,90.33
2022-09-17T03:16:29.647Z,90.31
2022-09-17T03:18:58.392Z,90.42
2022-09-17T03:21:27.119Z,90.53
2022-09-17T03:23:57.111Z,90.45
2022-09-17T03:26:25.861Z,90.48
2022-09-17T03:28:55.542Z,90.58
2022-09-17T03:31:24.304Z,90.53
2022-09-17T03:33:53.351Z,90.26
2022-09-17T03:36:22.014Z,90.45
2022-09-17T03:38:50.666Z,90.37
2022-09-17T03:41:20.708Z,90.39
2022-09-17T03:43:49.400Z,90.49
2022-09-17T03:46:18.438Z,90.67
2022-09-17T03:48:47.718Z,90.28
2022-09-17T03:51:16.391Z,90.26
2022-09-17T03:53:45.508Z,90.31
2022-09-17T03:56:14.646Z,90.51
2022-09-17T03:58:44.769Z,90.71
2022-09-17T04:01:13.568Z,90.48
2022-09-17T04:03:42.474Z,90.59
2022-09-17T04:06:11.232Z,90.30
2022-09-17T04:08:39.956Z,90.36
2022-09-17T04:11:08.749Z,90.34
2022-09-17T04:13:38.085Z,90.45
2022-09-17T04:16:08.899Z,90.44
2022-09-17T04:18:37.588Z,90.27
2022-09-17T04:21:07.392Z,90.42
2022-09-17T04:23:36.991Z,90.49
2022-09-17T04:26:05.882Z,90.53
2022-09-17T04:28:34.629Z,89.86
2022-09-17T04:31:03.370Z,90.41
2022-09-17T04:33:34.135Z,89.97
2022-09-17T04:36:03.418Z,89.75
2022-09-17T04:38:33.648Z,89.81
2022-09-17T04:41:02.753Z,89.83
2022-09-17T04:43:31.405Z,89.89
2022-09-17T04:46:00.117Z,89.98
2022-09-17T04:48:28.797Z,89.49
2022-09-17T04:50:58.910Z,89.60
2022-09-17T04:53:27.787Z,89.58
2022-09-17T04:55:56.458Z,89.83
2022-09-17T04:58:25.740Z,89.85
2022-09-17T05:00:54.512Z,89.67
2022-09-17T05:03:23.378Z,89.92
2022-09-17T05:05:52.167Z,89.81
2022-09-17T05:08:23.870Z,89.95
2022-09-17T05:10:52.954Z,89.64
2022-09-17T05:13:21.796Z,89.61
2022-09-17T05:15:50.493Z,89.41
2022-09-17T05:18:19.373Z,89.19
2022-09-17T05:20:48.097Z,89.43
2022-09-17T05:23:17.040Z,89.32
2022-09-17T05:25:47.211Z,89.10
2022-09-17T05:28:16.083Z,89.25
2022-09-17T05:30:44.802Z,89.36
2022-09-17T05:33:15.354Z,89.30
2022-09-17T05:35:45.473Z,89.35
2022-09-17T05:38:14.578Z,89.24
2022-09-17T05:40:43.633Z,89.35
2022-09-17T05:43:14.366Z,89.36
2022-09-17T05:45:44.824Z,89.19
2022-09-17T05:48:15.897Z,89.12
2022-09-17T05:50:44.731Z,89.08
2022-09-17T05:53:15.323Z,89.02
2022-09-17T05:55:44.470Z,89.04
2022-09-17T05:58:17.313Z,88.70
2022-09-17T06:00:48.846Z,88.70
2022-09-17T06:03:20.495Z,88.73
2022-09-17T06:05:58.249Z,88.92
2022-09-17T06:08:29.647Z,89.16
2022-09-17T06:11:02.466Z,88.69
2022-09-17T06:13:39.871Z,88.43
2022-09-17T06:16:12.279Z,88.74
2022-09-17T06:18:41.810Z,88.56
2022-09-17T06:21:11.580Z,88.72
2022-09-17T06:24:01.349Z,88.20
2022-09-17T06:26:32.615Z,87.93
2022-09-17T06:29:11.286Z,88.06
2022-09-17T06:31:43.554Z,87.71
2022-09-17T06:34:12.855Z,87.58
2022-09-17T06:36:56.401Z,87.44
2022-09-17T06:39:28.675Z,87.69
2022-09-17T06:42:00.692Z,87.61
2022-09-17T06:44:32.004Z,87.55
2022-09-17T06:47:03.816Z,87.68
2022-09-17T06:49:32.648Z,87.92
2022-09-17T06:52:01.882Z,87.94
2022-09-17T06:54:33.152Z,87.66
2022-09-17T06:57:33.156Z,87.88
2022-09-17T07:00:04.651Z,87.68
2022-09-17T07:02:33.713Z,87.50
2022-09-17T07:05:02.771Z,88.08
2022-09-17T07:07:32.020Z,88.08
2022-09-17T07:10:00.883Z,87.20
2022-09-17T07:12:30.295Z,87.48
2022-09-17T07:14:59.041Z,86.14
2022-09-17T07:17:31.186Z,86.35
2022-09-17T07:20:01.105Z,85.37
2022-09-17T07:22:30.011Z,84.85
2022-09-17T07:24:58.944Z,84.77
2022-09-17T07:27:29.418Z,84.70
2022-09-17T07:29:59.190Z,85.00
2022-09-17T07:32:32.508Z,84.87
2022-09-17T07:35:01.458Z,84.71
2022-09-17T07:37:32.766Z,85.00
2022-09-17T07:40:01.638Z,84.94
2022-09-17T07:42:34.295Z,84.87
2022-09-17T07:45:06.317Z,84.73
2022-09-17T07:47:41.688Z,84.70
2022-09-17T07:50:11.306Z,84.39
2022-09-17T07:52:41.655Z,84.86
2022-09-17T07:55:13.847Z,85.21
2022-09-17T07:57:42.605Z,85.11
2022-09-17T08:00:13.421Z,85.58
2022-09-17T08:02:46.866Z,86.17
2022-09-17T08:05:15.943Z,86.22
2022-09-17T08:07:46.212Z,86.12
2022-09-17T08:10:15.197Z,85.96
2022-09-17T08:12:43.847Z,86.18
2022-09-17T08:15:13.065Z,86.48
2022-09-17T08:17:49.410Z,87.24
2022-09-17T08:20:19.219Z,86.31
2022-09-17T08:22:50.150Z,86.18
2022-09-17T08:25:19.493Z,86.21
2022-09-17T08:27:48.260Z,86.11
2022-09-17T08:30:17.206Z,85.82
2022-09-17T08:32:50.113Z,85.49
2022-09-17T08:35:20.094Z,84.93
2022-09-17T08:37:48.817Z,84.87
2022-09-17T08:40:23.443Z,84.75
2022-09-17T08:42:58.906Z,84.62
2022-09-17T08:45:28.599Z,84.45
2022-09-17T08:48:07.074Z,84.18
2022-09-17T08:50:42.757Z,84.13
2022-09-17T08:53:42.080Z,83.76
2022-09-17T08:56:17.393Z,83.57
2022-09-17T08:59:13.498Z,83.38
2022-09-17T09:01:55.421Z,83.63
2022-09-17T09:04:55.816Z,83.73
2022-09-17T09:07:29.165Z,83.72
2022-09-17T09:10:18.967Z,83.65
2022-09-17T09:12:50.856Z,83.56
2022-09-17T09:15:48.624Z,83.98
2022-09-17T09:18:21.950Z,84.01
2022-09-17T09:20:55.831Z,83.94
2022-09-17T09:23:36.245Z,84.00
2022-09-17T09:26:17.392Z,83.80
2022-09-17T09:29:06.584Z,82.41
2022-09-17T09:32:15.251Z,82.37
2022-09-17T09:34:46.296Z,81.13
2022-09-17T09:37:25.038Z,80.83
2022-09-17T09:39:58.243Z,79.54
2022-09-17T09:43:04.076Z,79.35
2022-09-17T09:45:52.620Z,79.31
2022-09-17T09:48:34.622Z,79.47
2022-09-17T09:51:22.766Z,79.70
2022-09-17T09:54:14.808Z,79.92
2022-09-17T09:56:58.663Z,79.69
2022-09-17T09:59:28.046Z,79.74
2022-09-17T10:01:59.545Z,79.23
2022-09-17T10:04:32.537Z,78.84
2022-09-17T10:07:07.254Z,78.30
2022-09-17T10:09:42.362Z,78.41
2022-09-17T10:12:45.006Z,78.40
2022-09-17T10:15:30.598Z,77.86
2022-09-17T10:18:17.371Z,78.27
2022-09-17T10:20:58.582Z,77.92
2022-09-17T10:23:40.443Z,77.39
2022-09-17T10:26:24.784Z,77.32
2022-09-17T10:28:57.854Z,77.28
2022-09-17T10:31:27.054Z,77.18
2022-09-17T10:34:00.456Z,77.20
2022-09-17T10:36:42.636Z,77.70
2022-09-17T10:39:34.256Z,77.41
2022-09-17T10:42:07.388Z,77.10
2022-09-17T10:44:38.156Z,77.31
2022-09-17T10:47:14.065Z,77.40
2022-09-17T10:49:48.469Z,78.04
2022-09-17T10:52:27.089Z,77.73
2022-09-17T10:55:26.931Z,78.01
2022-09-17T10:58:10.189Z,77.82
2022-09-17T11:00:56.818Z,78.68
2022-09-17T11:03:57.511Z,78.24
2022-09-17T11:06:57.000Z,78.28
2022-09-17T11:09:43.079Z,78.71
2022-09-17T11:12:36.384Z,78.93
2022-09-17T11:15:24.389Z,79.01
2022-09-17T11:18:22.819Z,78.96
2022-09-17T11:21:24.391Z,78.78
2022-09-17T11:24:48.859Z,77.83
2022-09-17T11:27:51.070Z,77.25
2022-09-17T11:30:24.139Z,76.75
2022-09-17T11:33:36.859Z,76.35
2022-09-17T11:36:15.075Z,76.66
2022-09-17T11:38:48.925Z,77.04
2022-09-17T11:41:23.044Z,75.80
2022-09-17T11:44:05.948Z,74.88
2022-09-17T11:46:43.297Z,74.10
2022-09-17T11:49:23.242Z,74.40
2022-09-17T11:52:01.273Z,74.67
2022-09-17T11:54:39.733Z,73.91
2022-09-17T11:57:16.845Z,73.77
2022-09-17T12:00:05.557Z,74.12
2022-09-17T12:02:54.542Z,74.47
2022-09-17T12:05:30.541Z,74.07
2022-09-17T12:08:16.247Z,72.65
2022-09-17T12:10:54.364Z,71.94
2022-09-17T12:13:35.798Z,72.02
2022-09-17T12:16:17.210Z,72.01
2022-09-17T12:19:02.014Z,72.36
2022-09-17T12:21:38.375Z,72.24
2022-09-17T12:24:20.393Z,71.92
2022-09-17T12:27:05.748Z,72.46
2022-09-17T12:30:08.509Z,72.24
2022-09-17T12:33:16.086Z,72.13
2022-09-17T12:36:05.901Z,72.00
2022-09-17T12:39:06.391Z,71.95
2022-09-17T12:41:51.213Z,72.19
2022-09-17T12:44:45.165Z,72.03
2022-09-17T12:47:46.012Z,72.95
2022-09-17T12:50:28.409Z,72.87
2022-09-17T12:53:17.550Z,72.41
2022-09-17T12:56:18.220Z,72.34
2022-09-17T12:59:06.423Z,72.23
2022-09-17T13:01:47.062Z,72.66
2022-09-17T13:05:19.744Z,73.01
2022-09-17T13:08:54.558Z,73.12
2022-09-17T13:11:45.944Z,73.29
2022-09-17T13:14:27.908Z,72.85
2022-09-17T13:17:03.990Z,72.64
2022-09-17T13:19:43.321Z,71.81
2022-09-17T13:22:19.801Z,72.44
2022-09-17T13:25:06.150Z,72.87
2022-09-17T13:27:37.689Z,73.39
2022-09-17T13:30:11.134Z,73.47
2022-09-17T13:32:49.321Z,73.39
2022-09-17T13:35:52.912Z,72.77
2022-09-17T13:38:24.702Z,73.20
2022-09-17T13:41:24.296Z,71.73
2022-09-17T13:43:56.213Z,71.16
2022-09-17T13:46:26.878Z,70.11
2022-09-17T13:49:02.336Z,70.48
2022-09-17T13:51:56.054Z,71.23
2022-09-17T13:54:38.963Z,71.25
2022-09-17T13:57:18.808Z,71.17
2022-09-17T13:59:57.880Z,71.44
2022-09-17T14:02:37.995Z,70.80
2022-09-17T14:05:36.618Z,70.15
2022-09-17T14:08:30.601Z,69.68
2022-09-17T14:11:07.464Z,69.80
2022-09-17T14:13:46.463Z,69.68
2022-09-17T14:16:47.273Z,69.68
2022-09-17T14:19:51.067Z,70.85
2022-09-17T14:22:28.168Z,71.76
2022-09-17T14:24:57.300Z,72.62
2022-09-17T14:27:48.245Z,73.24
2022-09-17T14:30:22.993Z,73.90
2022-09-17T14:33:04.478Z,74.12
2022-09-17T14:35:41.726Z,74.75
2022-09-17T14:38:18.359Z,74.91
2022-09-17T14:40:50.971Z,75.15
2022-09-17T14:43:32.193Z,75.36
2022-09-17T14:46:06.292Z,75.61
2022-09-17T14:48:37.857Z,76.19
2022-09-17T14:51:30.766Z,76.58
2022-09-17T14:54:22.450Z,76.80
2022-09-17T14:56:58.269Z,77.63
2022-09-17T14:59:50.369Z,78.84
2022-09-17T15:02:32.957Z,79.19
2022-09-17T15:05:04.364Z,79.68
2022-09-17T15:07:33.158Z,80.09
2022-09-17T15:10:10.299Z,79.86
2022-09-17T15:12:40.778Z,79.69
2022-09-17T15:15:20.524Z,80.11
2022-09-17T15:17:53.352Z,81.06
2022-09-17T15:20:27.245Z,80.71
2022-09-17T15:23:11.345Z,80.98
2022-09-17T15:25:42.387Z,81.90
2022-09-17T15:28:30.911Z,81.37
2022-09-17T15:31:01.087Z,81.27
2022-09-17T15:33:38.063Z,81.44
2022-09-17T15:36:21.449Z,81.42
2022-09-17T15:38:51.732Z,81.47
2022-09-17T15:41:33.710Z,82.01
2022-09-17T15:44:32.098Z,82.24
2022-09-17T15:47:56.625Z,82.20
2022-09-17T15:50:29.338Z,82.12
2022-09-17T15:53:24.401Z,82.20
2022-09-17T15:56:09.646Z,82.58
2022-09-17T15:58:56.520Z,82.42
2022-09-17T16:01:56.469Z,82.82
2022-09-17T16:04:31.607Z,82.75
2022-09-17T16:07:29.868Z,82.92
2022-09-17T16:09:59.476Z,82.66
2022-09-17T16:12:30.245Z,82.72
2022-09-17T16:15:01.648Z,83.23
2022-09-17T16:17:48.293Z,83.21
2022-09-17T16:20:24.957Z,83.23
2022-09-17T16:22:57.449Z,83.21
2022-09-17T16:25:29.541Z,83.54
2022-09-17T16:28:02.663Z,83.84
2022-09-17T16:30:32.872Z,83.88
2022-09-17T16:33:06.949Z,83.71
2022-09-17T16:35:38.625Z,83.52
2022-09-17T16:38:10.091Z,83.96
2022-09-17T16:40:43.530Z,83.90
2022-09-17T16:43:16.754Z,83.87
2022-09-17T16:45:59.048Z,84.07
2022-09-17T16:48:28.075Z,84.13
2022-09-17T16:51:02.136Z,84.25
2022-09-17T16:53:34.911Z,84.19
2022-09-17T16:56:08.310Z,84.35
2022-09-17T16:58:37.127Z,84.16
2022-09-17T17:01:09.575Z,84.32
2022-09-17T17:03:39.240Z,84.30
2022-09-17T17:06:08.830Z,84.76
2022-09-17T17:08:39.364Z,85.26
2022-09-17T17:11:09.861Z,85.44
2022-09-17T17:13:39.176Z,85.62
2022-09-17T17:16:09.066Z,85.78
2022-09-17T17:18:38.691Z,85.58
2022-09-17T17:21:08.951Z,85.24
2022-09-17T17:23:43.588Z,85.73
2022-09-17T17:26:12.937Z,85.78
2022-09-17T17:28:42.394Z,85.48
2022-09-17T17:31:15.236Z,85.78
2022-09-17T17:33:46.007Z,85.88
2022-09-17T17:36:15.274Z,86.11
2022-09-17T17:38:46.261Z,86.38
2022-09-17T17:41:18.213Z,86.66
2022-09-17T17:43:47.343Z,86.52
2022-09-17T17:46:16.715Z,86.87
2022-09-17T17:48:48.859Z,86.56
2022-09-17T17:51:20.627Z,86.66
2022-09-17T17:53:52.331Z,86.67
2022-09-17T17:56:21.942Z,86.87
2022-09-17T17:58:56.448Z,86.91
2022-09-17T18:01:28.472Z,86.83
2022-09-17T18:03:59.595Z,86.90
2022-09-17T18:06:30.368Z,86.91
2022-09-17T18:09:02.014Z,86.75
2022-09-17T18:11:31.683Z,87.00
2022-09-17T18:14:04.297Z,87.10
2022-09-17T18:16:35.367Z,86.93
2022-09-17T18:19:04.721Z,86.97
2022-09-17T18:21:36.997Z,87.04
2022-09-17T18:24:08.521Z,87.20
2022-09-17T18:26:37.778Z,87.37
2022-09-17T18:29:08.360Z,87.27
2022-09-17T18:31:44.851Z,87.51
2022-09-17T18:34:17.200Z,87.31
2022-09-17T18:36:50.971Z,87.72
2022-09-17T18:42:13.321Z,88.24
2022-09-17T18:44:42.757Z,88.13
2022-09-17T18:47:12.143Z,88.33
2022-09-17T18:49:41.528Z,88.25
2022-09-17T18:52:10.735Z,88.17
2022-09-17T18:54:43.078Z,88.33
2022-09-17T18:57:12.490Z,88.51
2022-09-17T18:59:41.972Z,88.65
2022-09-17T19:02:14.058Z,88.29
2022-09-17T19:04:43.420Z,88.08
2022-09-17T19:07:12.752Z,88.41
2022-09-17T19:09:43.624Z,88.45
2022-09-17T19:12:18.460Z,88.52
2022-09-17T19:14:47.628Z,88.29
2022-09-17T19:17:17.788Z,88.70
2022-09-17T19:19:46.928Z,88.74
2022-09-17T19:22:16.460Z,88.60
2022-09-17T19:24:47.309Z,89.03
2022-09-17T19:27:19.292Z,89.36
2022-09-17T19:29:48.741Z,89.01
2022-09-17T19:32:18.289Z,89.01
2022-09-17T19:34:47.769Z,89.15
2022-09-17T19:37:18.346Z,89.53
2022-09-17T19:39:48.852Z,89.31
2022-09-17T19:42:18.356Z,89.55
2022-09-17T19:44:47.686Z,89.61
2022-09-17T19:47:19.560Z,89.67
2022-09-17T19:49:51.155Z,89.76
2022-09-17T19:52:21.245Z,89.89
2022-09-17T19:54:51.890Z,89.91
2022-09-17T19:57:21.325Z,89.88
2022-09-17T19:59:50.380Z,89.91
2022-09-17T20:02:19.868Z,90.01
2022-09-17T20:04:49.296Z,89.96
2022-09-17T20:07:18.665Z,89.86
2022-09-17T20:09:48.452Z,89.63
2022-09-17T20:12:19.278Z,89.59
2022-09-17T20:14:48.577Z,89.30
2022-09-17T20:17:18.034Z,89.32
2022-09-17T20:19:49.799Z,89.27
2022-09-17T20:22:21.067Z,89.32
2022-09-17T20:24:51.193Z,89.37
2022-09-17T20:27:21.995Z,89.32
2022-09-17T20:29:51.179Z,89.65
2022-09-17T20:32:20.717Z,89.55
2022-09-17T20:34:52.045Z,89.90
2022-09-17T20:37:39.373Z,90.26
2022-09-17T20:40:11.271Z,90.43
2022-09-17T20:42:41.465Z,90.48
2022-09-17T20:45:10.807Z,90.49
2022-09-17T20:47:39.595Z,90.34
2022-09-17T20:50:09.911Z,90.59
2022-09-17T20:52:38.593Z,90.80
2022-09-17T20:55:09.282Z,90.56
2022-09-17T20:57:41.034Z,90.50
2022-09-17T21:00:19.680Z,90.44
2022-09-17T21:02:50.964Z,90.44
2022-09-17T21:05:20.214Z,90.33
2022-09-17T21:07:49.290Z,90.42
2022-09-17T21:10:18.178Z,90.54
2022-09-17T21:12:48.460Z,90.36
2022-09-17T21:15:17.386Z,90.29
2022-09-17T21:17:48.227Z,90.09
2022-09-17T21:20:17.076Z,89.88
2022-09-17T21:22:45.769Z,89.59
2022-09-17T21:25:14.694Z,89.36
2022-09-17T21:27:43.314Z,89.44
2022-09-17T21:30:14.765Z,89.39
2022-09-17T21:32:43.596Z,89.38
2022-09-17T21:35:12.421Z,89.39
2022-09-17T21:37:41.118Z,89.65
2022-09-17T21:40:11.928Z,89.71
2022-09-17T21:42:40.740Z,89.89
2022-09-17T21:45:09.959Z,89.97
2022-09-17T21:47:40.267Z,90.18
2022-09-17T21:50:10.322Z,90.20
2022-09-17T21:52:39.182Z,90.29
2022-09-17T21:55:09.600Z,90.18
2022-09-17T21:57:39.478Z,90.21
2022-09-17T22:00:10.603Z,90.19
2022-09-17T22:02:40.857Z,90.21
2022-09-17T22:05:09.894Z,90.29
2022-09-17T22:07:39.941Z,90.35
2022-09-17T22:10:14.305Z,90.34
2022-09-17T22:12:43.019Z,90.39
2022-09-17T22:15:11.943Z,90.40
2022-09-17T22:17:42.208Z,90.30
2022-09-17T22:20:11.708Z,90.13
2022-09-17T22:22:40.670Z,90.12
2022-09-17T22:25:10.706Z,89.97
2022-09-17T22:27:39.415Z,89.94
2022-09-17T22:30:10.066Z,89.80
2022-09-17T22:32:41.361Z,89.84
2022-09-17T22:35:11.214Z,89.69
2022-09-17T22:37:39.949Z,89.70
2022-09-17T22:40:10.857Z,89.75
2022-09-17T22:42:39.642Z,89.70
2022-09-17T22:45:09.218Z,89.87
2022-09-17T22:47:37.964Z,89.87
2022-09-17T22:50:10.147Z,90.05
2022-09-17T22:52:38.813Z,89.98
2022-09-17T22:55:07.950Z,90.06
2022-09-17T22:57:36.657Z,90.01
2022-09-17T23:00:06.601Z,89.82
2022-09-17T23:02:36.518Z,89.84
2022-09-17T23:05:05.790Z,89.77
2022-09-17T23:07:35.917Z,89.70
2022-09-17T23:10:05.153Z,89.61
2022-09-17T23:12:34.021Z,89.72
2022-09-17T23:15:02.643Z,89.70
2022-09-17T23:17:32.083Z,89.67
2022-09-17T23:20:00.759Z,89.72
2022-09-17T23:22:29.359Z,89.56
2022-09-17T23:24:59.484Z,89.74
2022-09-17T23:27:28.066Z,89.78
2022-09-17T23:29:56.711Z,89.91
2022-09-17T23:32:25.599Z,90.01
2022-09-17T23:34:54.188Z,89.97
2022-09-17T23:37:23.355Z,89.78
2022-09-17T23:39:52.053Z,89.63
2022-09-17T23:42:22.143Z,89.73
2022-09-17T23:44:50.778Z,89.80
2022-09-17T23:47:19.595Z,89.75
2022-09-17T23:49:48.776Z,89.77
2022-09-17T23:52:17.568Z,89.78
2022-09-17T23:54:46.351Z,89.67
2022-09-17T23:57:15.163Z,89.55
2022-09-17T23:59:45.137Z,89.58
